EPGDEPMO [PL01]

Guest
Details From EPGD - LECH WALESA
To EPMO - MODLIN
Flight Number PL01
Tags GDANSK MODLIN POLAND XPLANE
Created
Modified
Stats Distance 177 nm / 328 km
Max Altitude 26,246 ft / 8,000 m
Waypoints 9
Social Downloads 5
Likes 1
Share VATSIM

Download

Looking for another format? Having issues loading an existing format? Contact us
Advertisement - Login to hide

Notes

None

Route

EPGD GDN EPMB GONTU SORIX UVROB INSON WA617 EPMO

ID Type Via Altitude Latitude Longitude Leg Dist Tot Dist Heading (true) Name
O EPGD APT - 1,604 ft / 489 m 54.37617˚ 18.47188˚ - 0 nm - LECH WALESA
GDN NDB - 8,202 ft / 2,500 m 54.34516˚ 18.59607˚ 4 nm 4 nm 113° / 113° GDANSK NDB
EPMB APT - 16,404 ft / 5,000 m 54.03156˚ 19.17485˚ 27 nm 32 nm 133° / 133° MALBORK
GONTU FIX - 26,246 ft / 8,000 m 53.49556˚ 19.31861˚ 32 nm 65 nm 171° / 171° -
SORIX FIX - 19,685 ft / 6,000 m 52.69528˚ 19.82000˚ 51 nm 116 nm 159° / 160° -
UVROB FIX - 9,842 ft / 3,000 m 52.56694˚ 21.02167˚ 44 nm 160 nm 100° / 100° -
INSON FIX - 9,842 ft / 3,000 m 52.49694˚ 20.95806˚ 4 nm 165 nm 209° / 209° -
WA617 FIX - 7,874 ft / 2,400 m 52.45850˚ 20.70928˚ 9 nm 175 nm 256° / 256° -
O EPMO APT - 1,118 ft / 341 m 52.45111˚ 20.65178˚ 2 nm 177 nm 258° / 258° MODLIN

Altitude Profile

Advertisement - Login to hide

Weather


0- 5 10 15 20 25 30 35+ Temperature / ° C

Clouds and Precipitation
Forecast for 2017-12-13 18:00 UTC. Updated 13 minutes ago

Ground ~20,000 ft ~40,000 ft Winds

EPGD

Details ICAO EPGD (GDN)
Name LECH WALESA
Region Poland
Timezone Europe/Warsaw (UTC+1.0)
Stats Elevation 489 ft / 149 m (AMSL)
Location 54.376167° 18.471884°
Runways 1
Magnetic Variation 5.450° E

METAR

EPGD 131330Z 20013KT 9999 FEW019 01/M02 Q1007

Decode

TAF

TAF TAF EPGD 131130Z 1312/1412 18012KT 9999 SCT019 TEMPO 1312/1410 18015G30KT BECMG 1404/1406 2500 SN SNRA BR BKN005 PROB40 1406/1410 BKN002 BECMG 1410/1412 24012KT 8000 NSW BKN010 PROB40 TEMPO 1410/1412 24015G25KT

Decode

Departure Runways

ID Width Length Bearing (true) Bearing (mag) Surface Threshold Offset Overrun Length
11 148 ft / 45 m 9,158 ft / 2,791 m 112.96° 107.51° Asphalt 0 ft / 0 m 0 ft / 0 m
29 148 ft / 45 m 9,158 ft / 2,791 m 293.00° 287.55° Asphalt 0 ft / 0 m 0 ft / 0 m

EPMO

Details ICAO EPMO (WMI)
Name MODLIN
Region Poland
Timezone Europe/Warsaw (UTC+1.0)
Stats Elevation 341 ft / 104 m (AMSL)
Location 52.451110° 20.651778°
Runways 1
Magnetic Variation 5.766° E

METAR

EPMO 131330Z 22008KT 9999 BKN024 02/M02 Q1014

Decode

TAF

TAF EPMO 131130Z 1312/1412 23010KT 9999 BKN025 BECMG 1316/1319 17013KT BECMG 1404/1406 17015G28KT BKN014 TEMPO 1406/1410 2000 SN SNRA BKN005 TEMPO 1410/1412 4000 RA RASN BR BKN009

Decode

Destination Runways

ID Width Length Bearing (true) Bearing (mag) Surface Threshold Offset Overrun Length
08 197 ft / 60 m 8,188 ft / 2,496 m 81.96° 76.19° Asphalt 0 ft / 0 m 0 ft / 0 m
26 197 ft / 60 m 8,188 ft / 2,496 m 261.99° 256.22° Asphalt 0 ft / 0 m 0 ft / 0 m

Popular Alternatives